createdAt,value
2018-09-15T00:01:46.561Z,12.16
2018-09-15T00:04:14.858Z,12.12
2018-09-15T00:06:42.905Z,12.08
2018-09-15T00:09:10.989Z,11.98
2018-09-15T00:11:39.121Z,11.91
2018-09-15T00:14:07.140Z,11.84
2018-09-15T00:16:35.228Z,11.84
2018-09-15T00:19:03.256Z,11.79
2018-09-15T00:21:31.364Z,11.79
2018-09-15T00:23:59.465Z,11.73
2018-09-15T00:26:27.569Z,11.77
2018-09-15T00:28:55.575Z,11.71
2018-09-15T00:31:23.609Z,11.70
2018-09-15T00:33:51.783Z,11.72
2018-09-15T00:36:19.794Z,11.67
2018-09-15T00:38:47.910Z,11.60
2018-09-15T00:41:15.932Z,11.52
2018-09-15T00:43:44.023Z,11.46
2018-09-15T00:46:11.990Z,11.44
2018-09-15T00:48:40.386Z,11.46
2018-09-15T00:51:08.771Z,11.45
2018-09-15T00:53:37.995Z,11.39
2018-09-15T00:56:06.244Z,11.32
2018-09-15T00:58:34.531Z,11.32
2018-09-15T01:01:02.734Z,11.23
2018-09-15T01:03:30.903Z,11.22
2018-09-15T01:05:59.075Z,11.18
2018-09-15T01:08:27.248Z,11.14
2018-09-15T01:10:55.608Z,11.12
2018-09-15T01:13:23.943Z,11.17
2018-09-15T01:15:52.110Z,11.12
2018-09-15T01:18:20.324Z,11.10
2018-09-15T01:20:48.498Z,10.98
2018-09-15T01:23:16.793Z,10.88
2018-09-15T01:25:44.933Z,10.79
2018-09-15T01:28:13.111Z,10.83
2018-09-15T01:30:41.266Z,10.85
2018-09-15T01:33:09.471Z,10.94
2018-09-15T01:35:37.667Z,11.00
2018-09-15T01:38:05.881Z,10.96
2018-09-15T01:40:34.060Z,10.90
2018-09-15T01:43:03.372Z,10.79
2018-09-15T01:45:31.590Z,10.77
2018-09-15T01:47:59.798Z,10.71
2018-09-15T01:50:27.956Z,10.74
2018-09-15T01:52:56.130Z,10.68
2018-09-15T01:55:24.290Z,10.72
2018-09-15T01:57:52.415Z,10.72
2018-09-15T02:00:20.637Z,10.78
2018-09-15T02:02:48.894Z,10.71
2018-09-15T02:05:16.993Z,10.68
2018-09-15T02:07:45.099Z,10.67
2018-09-15T02:10:13.264Z,10.71
2018-09-15T02:12:41.493Z,10.79
2018-09-15T02:15:09.613Z,10.74
2018-09-15T02:17:37.748Z,10.67
2018-09-15T02:20:05.820Z,10.74
2018-09-15T02:22:34.007Z,10.60
2018-09-15T02:25:02.133Z,10.51
2018-09-15T02:27:30.632Z,10.46
2018-09-15T02:29:58.661Z,10.44
2018-09-15T02:32:26.737Z,10.40
2018-09-15T02:34:54.892Z,10.46
2018-09-15T02:37:22.895Z,10.41
2018-09-15T02:39:50.917Z,10.41
2018-09-15T02:42:19.063Z,10.41
2018-09-15T02:44:47.103Z,10.41
2018-09-15T02:47:15.074Z,10.34
2018-09-15T02:49:43.078Z,10.35
2018-09-15T02:52:11.108Z,10.35
2018-09-15T02:54:39.123Z,10.33
2018-09-15T02:57:07.237Z,10.34
2018-09-15T02:59:35.272Z,10.32
2018-09-15T03:02:03.365Z,10.33
2018-09-15T03:04:31.357Z,10.26
2018-09-15T03:06:59.355Z,10.15
2018-09-15T03:09:27.390Z,10.16
2018-09-15T03:11:55.463Z,10.11
2018-09-15T03:14:23.443Z,10.10
2018-09-15T03:16:51.464Z,10.12
2018-09-15T03:19:19.603Z,10.09
2018-09-15T03:21:47.779Z,10.00
2018-09-15T03:24:15.864Z,9.97
2018-09-15T03:26:43.896Z,9.92
2018-09-15T03:29:12.040Z,9.99
2018-09-15T03:31:40.311Z,9.96
2018-09-15T03:34:08.449Z,9.90
2018-09-15T03:36:37.069Z,9.85
2018-09-15T03:39:08.290Z,9.98
2018-09-15T03:41:36.781Z,9.99
2018-09-15T03:44:05.237Z,9.91
2018-09-15T03:46:33.420Z,9.80
2018-09-15T03:49:01.863Z,9.76
2018-09-15T03:51:29.955Z,9.76
2018-09-15T03:53:58.066Z,9.78
2018-09-15T03:56:26.186Z,9.68
2018-09-15T03:58:54.266Z,9.74
2018-09-15T04:01:22.292Z,9.74
2018-09-15T04:03:50.306Z,9.80
2018-09-15T04:06:18.441Z,9.78
2018-09-15T04:08:46.694Z,9.72
2018-09-15T04:11:15.044Z,9.81
2018-09-15T04:13:43.392Z,9.76
2018-09-15T04:16:11.486Z,9.83
2018-09-15T04:18:39.551Z,9.80
2018-09-15T04:21:07.579Z,9.87
2018-09-15T04:23:35.750Z,9.90
2018-09-15T04:26:03.822Z,9.94
2018-09-15T04:28:32.091Z,9.99
2018-09-15T04:31:00.159Z,10.20
2018-09-15T04:33:28.306Z,10.16
2018-09-15T04:35:56.719Z,10.14
2018-09-15T04:38:24.852Z,10.25
2018-09-15T04:40:53.056Z,10.64
2018-09-15T04:43:21.267Z,11.57
2018-09-15T04:45:49.277Z,12.69
2018-09-15T04:48:17.336Z,13.54
2018-09-15T04:50:45.492Z,14.11
2018-09-15T04:53:13.695Z,14.12
2018-09-15T04:55:41.751Z,13.81
2018-09-15T04:58:09.843Z,13.80
2018-09-15T05:00:38.452Z,14.28
2018-09-15T05:03:06.996Z,14.69
2018-09-15T05:05:35.648Z,15.11
2018-09-15T05:08:04.239Z,15.28
2018-09-15T05:10:32.630Z,15.13
2018-09-15T05:13:01.216Z,15.21
2018-09-15T05:15:29.641Z,15.36
2018-09-15T05:17:58.059Z,15.51
2018-09-15T05:20:26.554Z,15.49
2018-09-15T05:22:55.104Z,15.46
2018-09-15T05:25:23.619Z,15.54
2018-09-15T05:27:52.039Z,15.66
2018-09-15T05:30:20.945Z,15.45
2018-09-15T05:32:50.568Z,15.65
2018-09-15T05:35:19.203Z,15.89
2018-09-15T05:37:48.073Z,15.83
2018-09-15T05:40:16.639Z,15.71
2018-09-15T05:42:45.855Z,16.02
2018-09-15T05:45:15.062Z,16.03
2018-09-15T05:47:44.121Z,16.02
2018-09-15T05:50:12.857Z,15.88
2018-09-15T05:52:41.415Z,15.80
2018-09-15T05:55:09.825Z,15.51
2018-09-15T05:57:38.532Z,15.56
2018-09-15T06:00:06.978Z,15.54
2018-09-15T06:02:35.451Z,15.67
2018-09-15T06:05:03.939Z,15.64
2018-09-15T06:07:32.379Z,15.79
2018-09-15T06:10:00.939Z,15.86
2018-09-15T06:12:29.369Z,15.78
2018-09-15T06:14:57.802Z,16.05
2018-09-15T06:17:26.182Z,15.91
2018-09-15T06:19:54.531Z,16.17
2018-09-15T06:22:23.092Z,16.22
2018-09-15T06:24:51.610Z,16.29
2018-09-15T06:27:20.302Z,16.13
2018-09-15T06:29:48.965Z,16.13
2018-09-15T06:32:17.503Z,16.30
2018-09-15T06:34:46.095Z,16.39
2018-09-15T06:37:14.505Z,16.77
2018-09-15T06:39:42.958Z,16.66
2018-09-15T06:42:11.363Z,16.96
2018-09-15T06:44:39.895Z,16.75
2018-09-15T06:47:08.311Z,17.05
2018-09-15T06:49:36.749Z,17.11
2018-09-15T06:52:05.230Z,17.15
2018-09-15T06:54:33.697Z,17.35
2018-09-15T06:57:02.341Z,17.36
2018-09-15T06:59:31.002Z,17.90
2018-09-15T07:01:59.457Z,17.89
2018-09-15T07:04:30.503Z,17.90
2018-09-15T07:07:00.216Z,17.85
2018-09-15T07:09:28.770Z,18.11
2018-09-15T07:11:57.122Z,18.42
2018-09-15T07:14:25.692Z,18.66
2018-09-15T07:16:54.046Z,18.67
2018-09-15T07:19:22.651Z,18.83
2018-09-15T07:21:51.472Z,19.09
2018-09-15T07:24:19.884Z,19.32
2018-09-15T07:26:48.190Z,19.60
2018-09-15T07:29:16.613Z,19.28
2018-09-15T07:31:45.266Z,20.04
2018-09-15T07:34:14.819Z,20.05
2018-09-15T07:36:43.185Z,20.28
2018-09-15T07:39:12.028Z,20.16
2018-09-15T07:41:40.884Z,20.29
2018-09-15T07:44:09.350Z,20.42
2018-09-15T07:46:37.662Z,20.77
2018-09-15T07:49:06.115Z,21.08
2018-09-15T07:51:34.508Z,21.91
2018-09-15T07:54:03.056Z,21.63
2018-09-15T07:56:31.719Z,21.62
2018-09-15T07:59:00.126Z,21.59
2018-09-15T08:01:28.404Z,22.14
2018-09-15T08:03:58.118Z,22.29
2018-09-15T08:06:26.426Z,21.82
2018-09-15T08:08:54.752Z,21.55
2018-09-15T08:11:22.932Z,21.79
2018-09-15T08:13:51.254Z,21.98
2018-09-15T08:16:20.548Z,22.06
2018-09-15T08:18:48.796Z,22.53
2018-09-15T08:21:17.054Z,23.00
2018-09-15T08:23:45.403Z,22.91
2018-09-15T08:26:14.023Z,23.27
2018-09-15T08:28:42.475Z,23.70
2018-09-15T08:31:10.969Z,23.98
2018-09-15T08:33:39.855Z,23.71
2018-09-15T08:36:08.352Z,23.45
2018-09-15T08:38:36.869Z,23.73
2018-09-15T08:41:05.346Z,23.39
2018-09-15T08:43:33.894Z,23.83
2018-09-15T08:46:03.045Z,24.25
2018-09-15T08:48:31.245Z,24.77
2018-09-15T08:50:59.575Z,25.28
2018-09-15T08:53:27.987Z,25.19
2018-09-15T08:55:56.407Z,24.62
2018-09-15T08:58:24.710Z,24.44
2018-09-15T09:00:53.252Z,24.83
2018-09-15T09:03:22.596Z,25.08
2018-09-15T09:05:51.147Z,24.98
2018-09-15T09:08:19.699Z,25.52
2018-09-15T09:10:48.121Z,25.47
2018-09-15T09:13:16.640Z,25.40
2018-09-15T09:15:45.152Z,25.78
2018-09-15T09:18:13.668Z,25.72
2018-09-15T09:20:41.972Z,25.66
2018-09-15T09:26:07.507Z,25.83
2018-09-15T09:28:35.842Z,25.84
2018-09-15T09:31:04.250Z,25.62
2018-09-15T09:33:32.777Z,26.44
2018-09-15T09:36:01.056Z,26.65
2018-09-15T09:38:29.293Z,26.30
2018-09-15T09:40:57.711Z,25.85
2018-09-15T09:43:27.031Z,25.76
2018-09-15T09:45:55.298Z,26.15
2018-09-15T09:48:24.263Z,26.66
2018-09-15T09:50:53.126Z,27.05
2018-09-15T09:53:24.785Z,26.73
2018-09-15T09:55:53.291Z,26.76
2018-09-15T09:58:21.887Z,27.01
2018-09-15T10:00:56.056Z,26.38
2018-09-15T10:03:24.566Z,26.05
2018-09-15T10:05:54.935Z,26.34
2018-09-15T10:08:24.311Z,26.25
2018-09-15T10:10:54.638Z,26.77
2018-09-15T10:13:23.325Z,27.10
2018-09-15T10:15:51.864Z,27.06
2018-09-15T10:18:20.362Z,26.96
2018-09-15T10:20:49.043Z,27.39
2018-09-15T10:23:17.537Z,27.92
2018-09-15T10:25:46.072Z,28.30
2018-09-15T10:28:14.809Z,28.16
2018-09-15T10:30:43.641Z,28.44
2018-09-15T10:33:12.350Z,27.48
2018-09-15T10:35:40.796Z,27.98
2018-09-15T10:38:09.832Z,28.18
2018-09-15T10:40:38.333Z,27.60
2018-09-15T10:43:08.813Z,26.95
2018-09-15T10:45:37.734Z,27.26
2018-09-15T10:48:06.463Z,27.07
2018-09-15T10:50:34.934Z,27.11
2018-09-15T10:53:03.679Z,27.15
2018-09-15T10:55:32.481Z,26.78
2018-09-15T10:58:01.380Z,26.87
2018-09-15T11:00:29.894Z,27.21
2018-09-15T11:02:59.354Z,28.14
2018-09-15T11:05:28.658Z,28.19
2018-09-15T11:07:57.669Z,28.11
2018-09-15T11:10:26.464Z,27.48
2018-09-15T11:12:55.497Z,27.30
2018-09-15T11:15:24.469Z,27.46
2018-09-15T11:17:53.875Z,27.23
2018-09-15T11:20:23.055Z,26.94
2018-09-15T11:22:51.819Z,26.63
2018-09-15T11:25:20.386Z,26.38
2018-09-15T11:27:49.280Z,26.12
2018-09-15T11:30:19.560Z,26.03
2018-09-15T11:32:48.585Z,25.78
2018-09-15T11:35:17.922Z,26.03
2018-09-15T11:37:46.864Z,26.63
2018-09-15T11:40:15.843Z,26.84
2018-09-15T11:42:45.347Z,27.26
2018-09-15T11:45:14.831Z,27.40
2018-09-15T11:47:47.154Z,27.51
2018-09-15T11:50:17.139Z,27.72
2018-09-15T11:52:48.455Z,27.65
2018-09-15T11:55:18.743Z,27.73
2018-09-15T11:57:47.500Z,27.98
2018-09-15T12:00:24.169Z,27.45
2018-09-15T12:02:54.154Z,27.72
2018-09-15T12:05:23.662Z,28.40
2018-09-15T12:07:53.026Z,28.98
2018-09-15T12:10:21.877Z,28.74
2018-09-15T12:12:50.690Z,28.62
2018-09-15T12:15:21.153Z,29.09
2018-09-15T12:17:51.612Z,29.21
2018-09-15T12:20:22.727Z,29.36
2018-09-15T12:22:52.380Z,28.87
2018-09-15T12:25:22.242Z,28.97
2018-09-15T12:27:51.813Z,28.89
2018-09-15T12:30:21.638Z,28.80
2018-09-15T12:32:51.578Z,28.91
2018-09-15T12:35:20.614Z,29.08
2018-09-15T12:37:49.182Z,28.84
2018-09-15T12:40:18.680Z,28.81
2018-09-15T12:42:47.532Z,28.84
2018-09-15T12:45:18.821Z,28.81
2018-09-15T12:47:49.862Z,28.29
2018-09-15T12:50:19.602Z,27.98
2018-09-15T13:14:31.591Z,27.15
2018-09-15T13:17:00.908Z,27.21
2018-09-15T13:19:30.054Z,27.26
2018-09-15T13:21:59.861Z,27.40
2018-09-15T13:24:30.235Z,27.12
2018-09-15T13:27:00.727Z,27.12
2018-09-15T13:29:36.660Z,26.98
2018-09-15T13:32:07.189Z,26.58
2018-09-15T13:34:44.262Z,26.72
2018-09-15T13:37:14.056Z,26.81
2018-09-15T13:39:42.606Z,26.98
2018-09-15T13:42:11.629Z,26.60
2018-09-15T13:44:41.734Z,26.34
2018-09-15T13:47:13.183Z,25.93
2018-09-15T13:49:42.205Z,25.68
2018-09-15T13:52:11.167Z,25.26
2018-09-15T13:54:39.957Z,25.06
2018-09-15T13:57:08.759Z,25.18
2018-09-15T13:59:45.843Z,25.09
2018-09-15T14:02:20.987Z,25.04
2018-09-15T14:04:53.517Z,25.00
2018-09-15T14:07:26.213Z,25.21
2018-09-15T14:09:59.870Z,25.29
2018-09-15T14:12:32.773Z,25.55
2018-09-15T14:15:05.408Z,25.53
2018-09-15T14:17:36.387Z,25.20
2018-09-15T14:20:07.359Z,24.98
2018-09-15T14:22:36.517Z,24.87
2018-09-15T14:25:05.248Z,24.81
2018-09-15T14:27:34.370Z,24.72
2018-09-15T14:30:03.126Z,24.72
2018-09-15T14:32:32.590Z,24.74
2018-09-15T14:35:01.671Z,24.57
2018-09-15T14:37:30.290Z,24.38
2018-09-15T14:40:00.078Z,24.29
2018-09-15T14:42:32.990Z,24.18
2018-09-15T14:45:05.372Z,23.95
2018-09-15T14:47:35.624Z,24.16
2018-09-15T14:50:11.061Z,24.29
2018-09-15T14:52:41.797Z,24.41
2018-09-15T14:55:14.950Z,24.51
2018-09-15T14:57:45.387Z,24.62
2018-09-15T15:00:16.530Z,24.71
2018-09-15T15:02:50.947Z,24.63
2018-09-15T15:05:20.697Z,24.50
2018-09-15T15:07:51.163Z,24.72
2018-09-15T15:10:21.042Z,24.64
2018-09-15T15:12:51.342Z,24.56
2018-09-15T15:15:20.592Z,24.53
2018-09-15T15:17:50.740Z,24.34
2018-09-15T15:20:21.083Z,24.26
2018-09-15T15:22:50.364Z,24.30
2018-09-15T15:25:21.733Z,24.23
2018-09-15T15:27:52.615Z,24.10
2018-09-15T15:30:21.717Z,24.07
2018-09-15T15:32:50.567Z,23.89
2018-09-15T15:35:22.423Z,23.76
2018-09-15T15:37:51.509Z,23.86
2018-09-15T15:40:22.132Z,23.81
2018-09-15T15:42:51.616Z,23.65
2018-09-15T15:45:20.691Z,23.66
2018-09-15T15:47:49.620Z,23.46
2018-09-15T15:50:19.368Z,23.30
2018-09-15T15:52:48.520Z,23.26
2018-09-15T15:55:17.788Z,23.25
2018-09-15T15:57:46.609Z,23.16
2018-09-15T16:00:16.251Z,22.97
2018-09-15T16:02:45.292Z,22.75
2018-09-15T16:05:14.756Z,22.81
2018-09-15T16:07:43.590Z,22.61
2018-09-15T16:10:12.562Z,22.51
2018-09-15T16:12:41.483Z,22.39
2018-09-15T16:15:09.864Z,22.43
2018-09-15T16:17:38.170Z,22.36
2018-09-15T16:20:06.706Z,22.17
2018-09-15T16:22:35.329Z,22.02
2018-09-15T16:25:04.238Z,21.86
2018-09-15T16:27:32.393Z,21.72
2018-09-15T16:30:00.936Z,21.84
2018-09-15T16:32:29.199Z,21.68
2018-09-15T16:34:58.574Z,21.35
2018-09-15T16:37:26.700Z,21.39
2018-09-15T16:39:54.948Z,21.41
2018-09-15T16:42:23.238Z,21.32
2018-09-15T16:44:51.384Z,21.27
2018-09-15T16:47:19.788Z,21.09
2018-09-15T16:49:48.034Z,20.90
2018-09-15T16:52:16.822Z,20.71
2018-09-15T16:54:46.368Z,20.44
2018-09-15T16:57:15.048Z,20.27
2018-09-15T16:59:43.639Z,20.17
2018-09-15T17:02:12.334Z,20.06
2018-09-15T17:04:41.184Z,20.00
2018-09-15T17:07:10.044Z,19.91
2018-09-15T17:09:39.222Z,19.78
2018-09-15T17:12:07.669Z,19.74
2018-09-15T17:14:36.432Z,19.70
2018-09-15T17:17:06.539Z,19.55
2018-09-15T17:19:38.276Z,19.41
2018-09-15T17:22:09.867Z,19.35
2018-09-15T17:24:41.899Z,19.20
2018-09-15T17:27:12.235Z,19.08
2018-09-15T17:29:44.200Z,18.98
2018-09-15T17:32:14.526Z,18.95
2018-09-15T17:34:44.782Z,18.74
2018-09-15T17:37:16.838Z,18.69
2018-09-15T17:39:47.649Z,18.64
2018-09-15T17:47:53.395Z,18.33
2018-09-15T17:50:21.966Z,18.29
2018-09-15T17:52:50.808Z,18.22
2018-09-15T17:55:20.927Z,18.14
2018-09-15T18:09:30.487Z,17.89
2018-09-15T18:12:00.026Z,17.81
2018-09-15T18:14:29.280Z,17.76
2018-09-15T18:16:58.461Z,17.70
2018-09-15T18:19:27.664Z,17.62
2018-09-15T18:21:57.537Z,17.55
2018-09-15T18:24:27.364Z,17.52
2018-09-15T18:26:56.727Z,17.53
2018-09-15T18:29:26.434Z,17.51
2018-09-15T18:31:55.413Z,17.46
2018-09-15T18:34:30.886Z,17.60
2018-09-15T18:37:00.870Z,17.60
2018-09-15T18:39:30.611Z,17.53
2018-09-15T18:42:02.391Z,17.53
2018-09-15T18:44:42.325Z,17.49
2018-09-15T18:47:13.062Z,17.44
2018-09-15T18:49:43.049Z,17.45
2018-09-15T18:52:12.836Z,17.39
2018-09-15T18:54:49.520Z,17.37
2018-09-15T18:57:19.189Z,17.30
2018-09-15T18:59:49.333Z,17.26
2018-09-15T19:02:18.562Z,17.24
2018-09-15T19:04:48.320Z,17.23
2018-09-15T19:07:17.169Z,17.21
2018-09-15T19:09:45.642Z,17.26
2018-09-15T19:12:14.967Z,17.18
2018-09-15T19:14:47.524Z,17.09
2018-09-15T19:17:16.238Z,17.06
2018-09-15T19:19:44.957Z,17.03
2018-09-15T19:22:15.019Z,16.99
2018-09-15T19:24:45.773Z,16.92
2018-09-15T19:27:14.352Z,16.95
2018-09-15T19:29:43.106Z,16.94
2018-09-15T19:32:12.371Z,16.94
2018-09-15T19:34:41.052Z,17.06
2018-09-15T19:37:10.903Z,17.32
2018-09-15T19:39:41.022Z,17.39
2018-09-15T19:42:10.629Z,17.66
2018-09-15T19:44:42.007Z,18.06
2018-09-15T19:47:11.716Z,17.85
2018-09-15T19:49:40.526Z,17.87
2018-09-15T19:52:09.419Z,17.91
2018-09-15T19:54:38.721Z,18.13
2018-09-15T19:57:07.767Z,18.24
2018-09-15T19:59:37.033Z,18.19
2018-09-15T20:02:06.245Z,18.01
2018-09-15T20:04:40.955Z,18.03
2018-09-15T20:07:10.237Z,17.98
2018-09-15T20:09:39.163Z,17.89
2018-09-15T20:12:08.450Z,17.77
2018-09-15T20:14:37.303Z,17.66
2018-09-15T20:17:04.686Z,17.60
2018-09-15T20:19:31.925Z,17.55
2018-09-15T20:21:59.104Z,17.40
2018-09-15T20:24:27.976Z,17.47
2018-09-15T20:26:58.021Z,17.35
2018-09-15T20:29:27.035Z,17.25
2018-09-15T20:31:56.893Z,17.25
2018-09-15T20:34:27.914Z,17.22
2018-09-15T20:36:57.639Z,17.20
2018-09-15T20:39:26.496Z,17.21
2018-09-15T20:41:55.395Z,17.17
2018-09-15T20:44:29.763Z,17.14
2018-09-15T20:46:58.395Z,17.05
2018-09-15T20:49:27.759Z,17.07
2018-09-15T20:51:57.574Z,16.99
2018-09-15T20:54:32.217Z,16.91
2018-09-15T20:57:01.186Z,16.97
2018-09-15T20:59:29.930Z,17.00
2018-09-15T21:01:58.911Z,16.89
2018-09-15T21:04:30.597Z,16.87
2018-09-15T21:06:59.951Z,16.74
2018-09-15T21:09:29.348Z,16.77
2018-09-15T21:11:58.483Z,16.59
2018-09-15T21:14:47.120Z,16.56
2018-09-15T21:17:16.446Z,16.45
2018-09-15T21:19:45.215Z,16.43
2018-09-15T21:22:14.268Z,16.36
2018-09-15T21:24:43.060Z,16.48
2018-09-15T21:27:11.643Z,16.48
2018-09-15T21:29:40.358Z,16.38
2018-09-15T21:32:09.064Z,16.36
2018-09-15T21:34:38.841Z,16.33
2018-09-15T21:37:08.087Z,16.31
2018-09-15T21:39:36.718Z,16.27
2018-09-15T21:42:05.388Z,16.26
2018-09-15T21:44:40.232Z,16.23
2018-09-15T21:47:08.935Z,16.12
2018-09-15T21:49:38.295Z,16.05
2018-09-15T21:52:07.233Z,15.96
2018-09-15T21:54:43.330Z,15.95
2018-09-15T21:57:12.433Z,15.87
2018-09-15T21:59:41.519Z,15.83
2018-09-15T22:02:10.796Z,15.72
2018-09-15T22:04:42.061Z,15.63
2018-09-15T22:07:10.687Z,15.64
2018-09-15T22:09:39.453Z,15.65
2018-09-15T22:12:08.148Z,15.57
2018-09-15T22:14:41.176Z,15.53
2018-09-15T22:17:09.870Z,15.46
2018-09-15T22:19:38.554Z,15.42
2018-09-15T22:22:07.433Z,15.34
2018-09-15T22:24:39.507Z,15.34
2018-09-15T22:27:08.248Z,15.34
2018-09-15T22:29:36.842Z,15.30
2018-09-15T22:32:05.516Z,15.33
2018-09-15T22:34:36.302Z,15.31
2018-09-15T22:37:05.164Z,15.26
2018-09-15T22:39:34.019Z,15.21
2018-09-15T22:42:02.617Z,15.25
2018-09-15T22:44:32.413Z,15.20
2018-09-15T22:47:00.912Z,15.20
2018-09-15T22:49:29.876Z,15.15
2018-09-15T22:51:58.003Z,15.10
2018-09-15T22:54:38.211Z,15.06
2018-09-15T22:57:06.545Z,15.00
2018-09-15T22:59:35.041Z,14.95
2018-09-15T23:02:03.837Z,14.94
2018-09-15T23:04:34.394Z,14.94
2018-09-15T23:07:03.041Z,14.97
2018-09-15T23:09:31.685Z,14.91
2018-09-15T23:11:59.904Z,14.84
2018-09-15T23:14:28.300Z,14.80
2018-09-15T23:16:56.742Z,14.73
2018-09-15T23:19:25.664Z,14.70
2018-09-15T23:21:54.706Z,14.67
2018-09-15T23:24:28.545Z,14.64
2018-09-15T23:26:56.908Z,14.58
2018-09-15T23:29:25.613Z,14.55
2018-09-15T23:31:54.083Z,14.54
2018-09-15T23:34:22.508Z,14.47
2018-09-15T23:36:50.891Z,14.42
2018-09-15T23:39:19.295Z,14.37
2018-09-15T23:41:51.709Z,14.32
2018-09-15T23:44:20.398Z,14.35
2018-09-15T23:46:49.173Z,14.30
2018-09-15T23:49:17.619Z,14.28
2018-09-15T23:51:46.281Z,14.25
2018-09-15T23:54:16.710Z,14.21
2018-09-15T23:56:45.222Z,14.16
2018-09-15T23:59:13.538Z,14.12
